Time;durP1;ratioP1;P1;durP2;ratioP2;P2;SDS_P1;SDS_P2;PMS_P1;PMS_P2;Temp;Humidity;BMP_temperature;BMP_pressure;BME280_temperature;BME280_humidity;BME280_pressure;Samples;Min_cycle;Max_cycle;Signal;HPM_P1;HPM_P2
2024/01/08 00:02:22;;;;;;;0.50;0.50;;;;;;;5.21;45.00;103281.19;5112552;28;20036;-73
2024/01/08 00:04:47;;;;;;;0.30;0.30;;;;;;;5.30;44.93;103277.75;5104181;28;20093;-74
2024/01/08 00:07:13;;;;;;;0.40;0.40;;;;;;;5.27;45.20;103279.81;5092390;28;20127;-72
2024/01/08 00:09:38;;;;;;;0.50;0.50;;;;;;;5.06;45.38;103282.50;5091962;28;20101;-73
2024/01/08 00:12:04;;;;;;;0.53;0.53;;;;;;;5.27;45.17;103277.13;5091908;28;20192;-73
2024/01/08 00:14:30;;;;;;;0.40;0.40;;;;;;;5.39;44.70;103286.75;5092187;28;20403;-74
2024/01/08 00:16:55;;;;;;;0.53;0.53;;;;;;;5.38;44.46;103275.22;5092062;28;20024;-74
2024/01/08 00:19:21;;;;;;;0.40;0.40;;;;;;;4.98;45.69;103270.78;5072239;28;20040;-73
2024/01/08 00:21:46;;;;;;;0.50;0.50;;;;;;;5.06;45.56;103279.81;5091693;28;20052;-74
2024/01/08 00:24:12;;;;;;;0.50;0.50;;;;;;;5.12;45.94;103273.13;5091677;28;20048;-73
2024/01/08 00:26:37;;;;;;;0.60;0.60;;;;;;;5.68;44.53;103273.59;5091161;28;20156;-73
2024/01/08 00:29:02;;;;;;;0.50;0.50;;;;;;;5.01;45.91;103273.19;5091484;28;20075;-73
2024/01/08 00:31:28;;;;;;;0.50;0.50;;;;;;;5.41;44.79;103268.81;5095961;28;20185;-75
2024/01/08 00:33:53;;;;;;;0.50;0.50;;;;;;;5.57;44.82;103270.97;5093198;28;20126;-75
2024/01/08 00:36:18;;;;;;;0.50;0.50;;;;;;;5.72;44.20;103262.50;5092931;28;20194;-71
2024/01/08 00:38:44;;;;;;;0.40;0.40;;;;;;;4.52;47.26;103271.09;5094642;28;20039;-73
2024/01/08 00:41:09;;;;;;;0.50;0.50;;;;;;;4.90;46.79;103268.75;5111379;28;20122;-73
2024/01/08 00:43:35;;;;;;;0.57;0.57;;;;;;;4.64;46.64;103269.25;5111417;28;20054;-74
2024/01/08 00:46:00;;;;;;;0.50;0.50;;;;;;;4.89;45.61;103267.09;5112093;28;20482;-74
2024/01/08 00:48:25;;;;;;;0.43;0.43;;;;;;;5.19;44.81;103260.94;5100840;28;20040;-72
2024/01/08 00:50:54;;;;;;;0.50;0.50;;;;;;;5.21;45.09;103267.00;5107746;28;20039;-73
2024/01/08 00:53:19;;;;;;;0.40;0.40;;;;;;;5.34;45.25;103265.84;5111284;28;20035;-73
2024/01/08 00:55:45;;;;;;;0.50;0.50;;;;;;;5.22;45.29;103268.69;5111564;28;20471;-74
2024/01/08 00:58:10;;;;;;;0.50;0.50;;;;;;;4.57;46.29;103268.06;5111610;28;20434;-72
2024/01/08 01:00:35;;;;;;;0.50;0.50;;;;;;;4.64;47.45;103267.41;5111729;28;20126;-73
2024/01/08 01:03:01;;;;;;;0.50;0.50;;;;;;;4.78;46.56;103261.78;5111211;28;20059;-72
2024/01/08 01:05:26;;;;;;;0.50;0.50;;;;;;;5.03;46.03;103261.41;5111225;28;20080;-74
2024/01/08 01:07:51;;;;;;;0.50;0.50;;;;;;;5.21;45.85;103267.00;5096501;28;20044;-74
2024/01/08 01:10:17;;;;;;;0.53;0.53;;;;;;;5.16;45.50;103263.88;5090807;28;20135;-73
2024/01/08 01:12:43;;;;;;;0.50;0.50;;;;;;;5.08;45.73;103275.22;5110979;28;20063;-72
2024/01/08 01:15:08;;;;;;;0.50;0.50;;;;;;;5.15;45.82;103273.69;5092721;28;20455;-76
2024/01/08 01:17:34;;;;;;;0.50;0.50;;;;;;;5.35;45.37;103277.31;5110878;28;20038;-72
2024/01/08 01:19:59;;;;;;;0.50;0.50;;;;;;;4.50;46.63;103281.06;5111151;28;20104;-73
2024/01/08 01:22:24;;;;;;;0.50;0.50;;;;;;;5.27;46.08;103277.13;5092455;28;20131;-73
2024/01/08 01:24:50;;;;;;;0.50;0.50;;;;;;;5.33;45.01;103284.63;5110956;28;20383;-72
2024/01/08 01:27:15;;;;;;;0.40;0.40;;;;;;;5.14;45.44;103284.50;5110711;28;20046;-71
2024/01/08 01:29:40;;;;;;;0.40;0.40;;;;;;;5.18;45.84;103281.44;5105372;28;20126;-73
2024/01/08 01:32:06;;;;;;;0.50;0.50;;;;;;;4.96;46.39;103286.03;5108473;28;20032;-74
2024/01/08 01:34:31;;;;;;;0.43;0.43;;;;;;;4.64;47.49;103285.25;5110918;28;20102;-71
2024/01/08 01:36:57;;;;;;;0.60;0.60;;;;;;;5.23;46.24;103289.88;5111336;28;20035;-73
2024/01/08 01:39:22;;;;;;;0.50;0.50;;;;;;;5.22;46.25;103295.34;5110872;28;20147;-72
2024/01/08 01:41:51;;;;;;;0.50;0.50;;;;;;;5.27;46.46;103293.13;5110760;28;20073;-70
2024/01/08 01:44:16;;;;;;;0.50;0.50;;;;;;;5.08;45.89;103293.00;5092351;28;20051;-71
2024/01/08 01:46:53;;;;;;;0.40;0.40;;;;;;;4.87;47.51;103287.69;5113843;28;20119;-75
2024/01/08 01:49:20;;;;;;;0.60;0.60;;;;;;;5.21;46.03;103294.50;5097573;28;20028;-72
2024/01/08 01:51:47;;;;;;;0.50;0.50;;;;;;;5.19;46.28;103298.25;5093240;28;20123;-72
2024/01/08 01:54:15;;;;;;;0.60;0.60;;;;;;;4.96;47.35;103300.22;5094455;28;20040;-74
2024/01/08 01:56:42;;;;;;;0.50;0.50;;;;;;;4.99;46.13;103291.94;5097330;28;20035;-73
2024/01/08 01:59:09;;;;;;;0.47;0.47;;;;;;;5.20;46.52;103299.97;5114613;28;20483;-74
2024/01/08 02:01:35;;;;;;;0.60;0.60;;;;;;;5.16;46.50;103294.06;5114695;28;20058;-74
2024/01/08 02:04:02;;;;;;;0.50;0.50;;;;;;;5.18;46.22;103296.59;5115159;28;20386;-72
2024/01/08 02:06:28;;;;;;;0.50;0.50;;;;;;;5.11;46.58;103295.44;5114530;28;20036;-72
2024/01/08 02:08:54;;;;;;;0.40;0.40;;;;;;;4.91;47.65;103301.59;5114419;28;20089;-73
2024/01/08 02:11:20;;;;;;;0.77;0.77;;;;;;;5.25;46.70;103305.75;5114333;28;20039;-71
2024/01/08 02:13:45;;;;;;;0.50;0.50;;;;;;;5.42;46.02;103309.66;5114446;28;20043;-72
2024/01/08 02:16:11;;;;;;;0.60;0.60;;;;;;;5.62;45.59;103303.47;5115228;28;20043;-74
2024/01/08 02:18:36;;;;;;;0.40;0.40;;;;;;;5.49;45.64;103306.31;5114262;28;20031;-72
2024/01/08 02:21:01;;;;;;;0.60;0.60;;;;;;;4.92;47.20;103309.44;5113748;28;20082;-71
2024/01/08 02:23:27;;;;;;;0.50;0.50;;;;;;;4.71;48.49;103315.69;5113742;28;20070;-72
2024/01/08 02:25:52;;;;;;;0.53;0.53;;;;;;;5.07;48.08;103309.97;5114303;28;20071;-72
2024/01/08 02:28:18;;;;;;;0.60;0.60;;;;;;;5.04;48.03;103311.06;5114592;28;20031;-72
2024/01/08 02:30:43;;;;;;;0.60;0.60;;;;;;;5.15;46.78;103316.34;5095526;28;20104;-72
2024/01/08 02:33:08;;;;;;;0.60;0.60;;;;;;;5.18;47.49;103312.59;5114612;28;20394;-72
2024/01/08 02:35:34;;;;;;;0.63;0.63;;;;;;;4.75;47.91;103304.69;5114281;28;20407;-71
2024/01/08 02:37:59;;;;;;;0.63;0.63;;;;;;;5.27;46.87;103307.31;5097171;28;20044;-72
2024/01/08 02:40:25;;;;;;;0.40;0.40;;;;;;;5.21;47.20;103301.66;5114386;28;20092;-74
2024/01/08 02:42:51;;;;;;;0.67;0.67;;;;;;;5.22;47.61;103298.03;5095659;28;20039;-73
2024/01/08 02:45:16;;;;;;;0.50;0.50;;;;;;;5.55;47.40;103311.13;5113966;28;20035;-72
2024/01/08 02:47:41;;;;;;;0.50;0.50;;;;;;;5.26;46.93;103310.13;5109355;28;20111;-73
2024/01/08 02:50:08;;;;;;;0.60;0.60;;;;;;;5.83;46.82;103313.13;5093554;28;20036;-73
2024/01/08 02:52:34;;;;;;;0.50;0.50;;;;;;;5.10;48.07;103321.22;5093438;28;20100;-71
2024/01/08 02:54:59;;;;;;;0.47;0.47;;;;;;;5.32;47.59;103318.44;5094072;28;20028;-72
2024/01/08 02:57:28;;;;;;;0.50;0.50;;;;;;;5.51;48.30;103317.69;5092618;28;20036;-71
2024/01/08 02:59:54;;;;;;;0.50;0.50;;;;;;;4.93;49.72;103319.13;5093248;28;20059;-71
2024/01/08 03:02:20;;;;;;;0.50;0.50;;;;;;;5.25;48.92;103314.59;5093157;28;20040;-71
2024/01/08 03:04:45;;;;;;;0.40;0.40;;;;;;;4.98;49.68;103329.38;5093093;28;20441;-71
2024/01/08 03:07:14;;;;;;;0.60;0.60;;;;;;;4.84;49.44;103322.53;5074811;28;20446;-73
2024/01/08 03:09:40;;;;;;;0.40;0.40;;;;;;;5.68;47.83;103319.75;5093051;28;20108;-72
2024/01/08 03:12:06;;;;;;;0.50;0.50;;;;;;;5.14;48.62;103321.81;5091399;28;20032;-70
2024/01/08 03:14:31;;;;;;;0.40;0.40;;;;;;;5.86;47.48;103326.19;5093114;28;20062;-74
2024/01/08 03:16:57;;;;;;;0.40;0.40;;;;;;;5.74;46.88;103327.22;5106591;28;20394;-73
2024/01/08 03:19:22;;;;;;;0.53;0.53;;;;;;;5.08;49.62;103322.31;5113215;28;20102;-72
2024/01/08 03:21:47;;;;;;;0.40;0.40;;;;;;;5.64;48.83;103331.66;5114133;28;20059;-70
2024/01/08 03:24:13;;;;;;;0.50;0.50;;;;;;;5.46;49.00;103327.94;5113151;28;20048;-70
2024/01/08 03:26:38;;;;;;;0.40;0.40;;;;;;;5.03;50.37;103332.53;5112393;28;20114;-72
2024/01/08 03:29:04;;;;;;;0.40;0.40;;;;;;;6.05;47.53;103328.13;5111508;28;20572;-69
2024/01/08 03:31:29;;;;;;;0.50;0.50;;;;;;;6.01;47.70;103327.50;5104079;28;20814;-70
2024/01/08 03:33:54;;;;;;;0.50;0.50;;;;;;;5.42;48.98;103330.97;5112420;28;20131;-73
2024/01/08 03:36:20;;;;;;;0.50;0.50;;;;;;;5.32;49.59;103334.44;5111659;28;20046;-71
2024/01/08 03:38:45;;;;;;;0.30;0.30;;;;;;;6.36;47.70;103328.91;5095026;28;20064;-70
2024/01/08 03:41:10;;;;;;;0.50;0.50;;;;;;;5.95;47.80;103329.91;5111825;28;20110;-70
2024/01/08 03:43:36;;;;;;;0.50;0.50;;;;;;;5.16;50.22;103327.84;5111307;28;20063;-71
2024/01/08 03:46:01;;;;;;;0.40;0.40;;;;;;;5.01;51.06;103332.63;5112095;28;20031;-70
2024/01/08 03:48:26;;;;;;;0.47;0.47;;;;;;;5.83;49.85;103333.59;5111517;28;20135;-71
2024/01/08 03:50:52;;;;;;;0.50;0.50;;;;;;;5.66;50.03;103335.03;5094394;28;20119;-73
2024/01/08 03:53:17;;;;;;;0.70;0.70;;;;;;;5.48;49.79;103323.31;5091612;28;20058;-72
2024/01/08 03:55:43;;;;;;;0.43;0.43;;;;;;;5.69;50.20;103325.94;5091392;28;20025;-71
2024/01/08 03:58:08;;;;;;;0.40;0.40;;;;;;;5.57;50.08;103333.19;5091958;28;20024;-72
2024/01/08 04:00:34;;;;;;;0.57;0.57;;;;;;;6.05;48.63;103325.44;5091291;28;20511;-72
2024/01/08 04:02:59;;;;;;;0.40;0.40;;;;;;;5.58;49.54;103326.84;5091472;28;20445;-71
2024/01/08 04:05:24;;;;;;;0.40;0.40;;;;;;;5.87;49.20;103321.72;5091679;28;20085;-72
2024/01/08 04:07:50;;;;;;;0.50;0.50;;;;;;;6.14;48.63;103327.28;5090179;28;20135;-73
2024/01/08 04:10:15;;;;;;;0.40;0.40;;;;;;;6.30;48.13;103329.44;5091286;28;20055;-71
2024/01/08 04:12:41;;;;;;;0.40;0.40;;;;;;;6.30;49.08;103338.31;5096867;28;20056;-72
2024/01/08 04:15:07;;;;;;;0.50;0.50;;;;;;;6.10;49.19;103329.41;5111131;28;20042;-73
2024/01/08 04:17:32;;;;;;;0.50;0.50;;;;;;;5.95;49.55;103328.09;5111398;28;20036;-71
2024/01/08 04:19:57;;;;;;;0.50;0.50;;;;;;;5.30;51.55;103322.22;5111460;28;20039;-70
2024/01/08 04:22:23;;;;;;;0.50;0.50;;;;;;;6.09;50.15;103324.19;5111574;28;20471;-71
2024/01/08 04:24:48;;;;;;;0.43;0.43;;;;;;;5.51;50.91;103320.38;5069760;28;1199581;-70
2024/01/08 04:27:14;;;;;;;0.47;0.47;;;;;;;6.53;49.05;103320.22;5111948;28;20523;-69
2024/01/08 04:29:39;;;;;;;0.40;0.40;;;;;;;5.86;50.34;103320.84;5111460;28;20067;-71
2024/01/08 04:32:04;;;;;;;0.50;0.50;;;;;;;6.12;49.78;103315.91;5092515;28;20043;-72
2024/01/08 04:34:30;;;;;;;0.40;0.40;;;;;;;5.97;50.38;103314.59;5111842;28;20027;-70
2024/01/08 04:36:55;;;;;;;0.47;0.47;;;;;;;6.29;50.23;103319.75;5112407;28;20106;-71
2024/01/08 04:39:21;;;;;;;0.40;0.40;;;;;;;6.00;49.81;103315.16;5111691;28;20042;-73
2024/01/08 04:41:46;;;;;;;0.50;0.50;;;;;;;6.33;49.23;103321.19;5111918;28;20035;-71
2024/01/08 04:44:11;;;;;;;0.37;0.37;;;;;;;6.25;49.49;103315.69;5111456;28;20032;-72
2024/01/08 04:46:37;;;;;;;0.50;0.50;;;;;;;6.39;49.97;103321.44;5111385;28;20078;-72
2024/01/08 04:49:03;;;;;;;0.40;0.40;;;;;;;6.11;50.28;103317.72;5110308;28;20032;-71
2024/01/08 04:51:30;;;;;;;0.40;0.40;;;;;;;5.21;51.47;103318.50;5089921;28;20035;-71
2024/01/08 04:53:55;;;;;;;0.40;0.40;;;;;;;6.00;51.41;103317.84;5091431;28;20531;-69
2024/01/08 04:56:23;;;;;;;0.50;0.50;;;;;;;5.86;51.30;103314.66;5091124;28;20090;-72
2024/01/08 04:58:49;;;;;;;0.50;0.50;;;;;;;5.74;50.58;103319.22;5091054;28;20107;-70
2024/01/08 05:01:14;;;;;;;0.50;0.50;;;;;;;6.14;50.68;103316.63;5093534;28;20466;-72
2024/01/08 05:03:41;;;;;;;0.50;0.50;;;;;;;6.37;49.40;103318.06;5110847;28;20100;-71
2024/01/08 05:06:07;;;;;;;0.40;0.40;;;;;;;5.45;51.56;103312.91;5110863;28;20036;-71
2024/01/08 05:08:32;;;;;;;0.50;0.50;;;;;;;5.91;51.27;103313.31;5110462;28;20054;-70
2024/01/08 05:10:57;;;;;;;0.40;0.40;;;;;;;6.31;49.72;103313.28;5110971;28;20403;-72
2024/01/08 05:13:23;;;;;;;0.50;0.50;;;;;;;6.18;49.68;103313.53;5110567;28;20064;-70
2024/01/08 05:15:48;;;;;;;0.40;0.40;;;;;;;5.95;50.26;103313.88;5111478;28;20027;-70
2024/01/08 05:18:13;;;;;;;0.50;0.50;;;;;;;5.63;50.56;103318.47;5091379;28;20048;-72
2024/01/08 05:20:39;;;;;;;0.53;0.53;;;;;;;5.75;50.29;103322.75;5110988;28;20035;-71
2024/01/08 05:23:04;;;;;;;0.50;0.50;;;;;;;5.90;50.63;103310.75;5110955;28;20066;-70
2024/01/08 05:25:33;;;;;;;0.50;0.50;;;;;;;6.55;47.86;103312.91;5110680;28;20087;-72
2024/01/08 05:27:58;;;;;;;0.40;0.40;;;;;;;5.91;49.15;103313.31;5111585;28;20479;-73
2024/01/08 05:30:24;;;;;;;0.60;0.60;;;;;;;6.46;48.74;103311.94;5102866;28;20119;-72
2024/01/08 05:32:50;;;;;;;0.40;0.40;;;;;;;5.93;49.32;103305.16;5110797;28;20154;-72
2024/01/08 05:35:15;;;;;;;0.50;0.50;;;;;;;6.64;47.68;103304.06;5111036;28;20611;-71
2024/01/08 05:37:41;;;;;;;0.50;0.50;;;;;;;6.13;48.89;103306.94;5111016;28;20046;-71
2024/01/08 05:40:07;;;;;;;0.43;0.43;;;;;;;6.19;48.11;103317.06;5111292;28;20113;-72
2024/01/08 05:42:32;;;;;;;0.50;0.50;;;;;;;6.33;47.64;103305.97;5110877;28;20452;-72
2024/01/08 05:44:58;;;;;;;0.40;0.40;;;;;;;6.28;47.75;103315.38;5110830;28;20126;-71
2024/01/08 05:47:23;;;;;;;0.40;0.40;;;;;;;6.57;46.93;103311.78;5110687;28;20122;-71
2024/01/08 05:49:49;;;;;;;0.40;0.40;;;;;;;5.99;48.55;103316.16;5102229;28;20123;-72
2024/01/08 05:52:14;;;;;;;0.30;0.30;;;;;;;6.31;48.01;103315.13;5090893;28;20051;-72
2024/01/08 05:54:39;;;;;;;0.50;0.50;;;;;;;6.20;46.85;103319.59;5090163;28;20079;-70
2024/01/08 05:57:05;;;;;;;0.50;0.50;;;;;;;6.04;48.10;103319.25;5090500;28;20028;-72
2024/01/08 05:59:30;;;;;;;0.40;0.40;;;;;;;6.40;47.41;103316.97;5090330;28;20032;-71
2024/01/08 06:01:55;;;;;;;0.40;0.40;;;;;;;6.43;46.64;103312.19;5090205;28;20111;-72
2024/01/08 06:04:21;;;;;;;0.40;0.40;;;;;;;6.30;47.27;103324.97;5092974;28;20035;-73
2024/01/08 06:06:49;;;;;;;0.40;0.40;;;;;;;6.44;46.35;103318.38;5111284;28;20138;-72
2024/01/08 06:09:15;;;;;;;0.40;0.40;;;;;;;6.53;46.80;103318.38;5110282;28;20456;-70
2024/01/08 06:11:40;;;;;;;0.40;0.40;;;;;;;6.92;44.68;103322.78;5110544;28;20043;-72
2024/01/08 06:14:06;;;;;;;0.40;0.40;;;;;;;6.34;46.38;103322.84;5110363;28;20118;-69
2024/01/08 06:16:35;;;;;;;0.30;0.30;;;;;;;6.08;46.96;103320.69;5098388;28;20024;-73
2024/01/08 06:19:01;;;;;;;0.40;0.40;;;;;;;6.70;45.69;103322.22;5110632;28;20102;-71
2024/01/08 06:21:27;;;;;;;0.40;0.40;;;;;;;6.28;45.89;103334.06;5110763;28;20041;-69
2024/01/08 06:23:52;;;;;;;0.50;0.50;;;;;;;5.55;48.03;103328.94;5090982;28;20736;-70
2024/01/08 06:26:18;;;;;;;0.50;0.50;;;;;;;5.30;46.96;103323.06;5106695;28;20055;-71
2024/01/08 06:28:43;;;;;;;0.50;0.50;;;;;;;5.31;48.04;103330.06;5109442;28;20551;-70
2024/01/08 06:31:08;;;;;;;0.40;0.40;;;;;;;5.49;47.46;103329.47;5112873;28;20020;-70
2024/01/08 06:33:34;;;;;;;0.40;0.40;;;;;;;5.38;47.52;103331.22;5113678;28;20028;-70
2024/01/08 06:35:59;;;;;;;0.50;0.50;;;;;;;5.82;46.81;103334.56;5108618;28;20046;-69
2024/01/08 06:38:26;;;;;;;0.50;0.50;;;;;;;5.97;46.72;103338.63;5113526;28;20036;-70
2024/01/08 06:40:51;;;;;;;0.30;0.30;;;;;;;6.00;45.94;103343.66;5113402;28;20110;-70
2024/01/08 06:43:20;;;;;;;0.50;0.50;;;;;;;6.01;46.16;103330.19;5114134;28;20028;-70
2024/01/08 06:45:45;;;;;;;0.40;0.40;;;;;;;6.66;45.20;103340.34;5113318;28;20031;-70
2024/01/08 06:48:11;;;;;;;0.47;0.47;;;;;;;5.98;45.97;103341.13;5091865;28;20498;-70
2024/01/08 06:50:38;;;;;;;0.40;0.40;;;;;;;5.88;46.69;103344.72;5115967;27;20050;-70
2024/01/08 06:53:03;;;;;;;0.50;0.50;;;;;;;5.88;47.37;103339.41;5117524;27;20043;-70
2024/01/08 06:55:29;;;;;;;0.50;0.50;;;;;;;5.53;48.67;103350.41;5113452;28;20494;-70
2024/01/08 06:57:54;;;;;;;0.40;0.40;;;;;;;5.56;48.25;103350.16;5113768;28;20384;-71
2024/01/08 07:00:20;;;;;;;0.40;0.40;;;;;;;5.67;47.91;103344.75;5112313;28;20165;-71
2024/01/08 07:02:46;;;;;;;0.40;0.40;;;;;;;5.74;47.56;103348.56;5113296;28;20035;-69
2024/01/08 07:05:11;;;;;;;0.50;0.50;;;;;;;5.45;49.24;103347.56;5113366;28;20144;-70
2024/01/08 07:07:37;;;;;;;0.53;0.53;;;;;;;5.66;49.14;103355.56;5113217;28;20118;-70
2024/01/08 07:10:04;;;;;;;0.40;0.40;;;;;;;5.18;50.36;103352.56;5113281;28;20043;-70
2024/01/08 07:12:29;;;;;;;0.50;0.50;;;;;;;5.34;50.04;103358.28;5094953;28;20057;-69
2024/01/08 07:14:55;;;;;;;0.50;0.50;;;;;;;5.53;49.54;103355.75;5112587;28;20039;-69
2024/01/08 07:17:21;;;;;;;0.30;0.30;;;;;;;6.53;47.51;103352.25;5092972;28;20057;-69
2024/01/08 07:19:46;;;;;;;0.50;0.50;;;;;;;5.55;49.16;103356.47;5092656;28;20032;-70
2024/01/08 07:22:12;;;;;;;0.50;0.50;;;;;;;6.21;48.75;103355.97;5092833;28;20533;-69
2024/01/08 07:24:37;;;;;;;0.50;0.50;;;;;;;5.92;49.06;103359.50;5092944;28;20087;-70
2024/01/08 07:27:03;;;;;;;0.47;0.47;;;;;;;5.54;49.99;103360.13;5112018;28;20043;-70
2024/01/08 07:29:28;;;;;;;0.40;0.40;;;;;;;5.93;49.35;103366.53;5112588;28;20039;-70
2024/01/08 07:31:53;;;;;;;0.47;0.47;;;;;;;5.74;50.49;103366.41;5112597;28;20093;-70
2024/01/08 07:34:19;;;;;;;0.50;0.50;;;;;;;5.78;49.45;103357.19;5113581;28;20096;-70
2024/01/08 07:36:44;;;;;;;0.40;0.40;;;;;;;5.38;50.92;103363.22;5112594;28;20074;-70
2024/01/08 07:39:14;;;;;;;0.43;0.43;;;;;;;5.70;50.90;103373.00;5112882;28;20036;-70
2024/01/08 07:41:40;;;;;;;0.60;0.60;;;;;;;5.94;50.57;103371.75;5113027;28;20039;-70
2024/01/08 07:44:06;;;;;;;0.40;0.40;;;;;;;6.20;49.43;103372.13;5111053;28;20035;-70
2024/01/08 07:46:31;;;;;;;0.40;0.40;;;;;;;5.13;51.62;103384.91;5112138;28;20487;-69
2024/01/08 07:49:06;;;;;;;0.50;0.50;;;;;;;6.23;50.19;103371.84;5111277;28;20134;-69
2024/01/08 07:51:35;;;;;;;0.50;0.50;;;;;;;5.62;51.21;103380.81;5092101;28;20036;-70
2024/01/08 07:54:00;;;;;;;0.40;0.40;;;;;;;5.60;51.62;103377.41;5091932;28;20534;-71
2024/01/08 07:56:25;;;;;;;0.50;0.50;;;;;;;6.12;50.02;103378.16;5091856;28;20124;-69
2024/01/08 07:58:51;;;;;;;0.60;0.60;;;;;;;5.60;50.49;103382.75;5111317;28;20123;-69
2024/01/08 08:01:16;;;;;;;0.50;0.50;;;;;;;5.91;50.91;103384.50;5109097;28;20039;-70
2024/01/08 08:03:42;;;;;;;0.40;0.40;;;;;;;5.72;50.82;103384.38;5102327;28;20119;-71
2024/01/08 08:06:07;;;;;;;0.50;0.50;;;;;;;6.11;50.44;103386.31;5101169;28;20028;-71
2024/01/08 08:08:36;;;;;;;0.30;0.30;;;;;;;5.46;52.31;103385.75;5112211;28;20036;-72
2024/01/08 08:11:03;;;;;;;0.50;0.50;;;;;;;5.41;52.01;103386.13;5108287;28;20032;-72
2024/01/08 08:13:28;;;;;;;0.40;0.40;;;;;;;5.62;51.96;103384.28;5075828;28;20024;-71
2024/01/08 08:15:54;;;;;;;0.40;0.40;;;;;;;5.82;51.31;103391.44;5108227;28;20038;-70
2024/01/08 08:18:19;;;;;;;0.50;0.50;;;;;;;6.41;50.27;103396.94;5111291;28;20367;-71
2024/01/08 08:20:45;;;;;;;0.40;0.40;;;;;;;6.62;49.91;103387.03;5111743;28;20104;-71
2024/01/08 08:23:12;;;;;;;0.40;0.40;;;;;;;6.09;50.05;103397.09;5111522;28;20041;-72
2024/01/08 08:25:38;;;;;;;0.50;0.50;;;;;;;6.17;50.09;103402.59;5111526;28;20062;-69
2024/01/08 08:28:04;;;;;;;0.40;0.40;;;;;;;6.48;50.22;103399.91;5112309;28;20020;-73
2024/01/08 08:30:30;;;;;;;0.50;0.50;;;;;;;6.39;50.70;103406.09;5092471;28;20460;-71
2024/01/08 08:32:58;;;;;;;0.50;0.50;;;;;;;6.23;50.10;103407.41;5092394;28;20023;-70
2024/01/08 08:35:26;;;;;;;0.40;0.40;;;;;;;6.31;50.05;103403.25;5107786;28;20039;-69
2024/01/08 08:37:51;;;;;;;0.50;0.50;;;;;;;5.98;51.26;103413.19;5108128;28;20457;-71
2024/01/08 08:40:17;;;;;;;0.30;0.30;;;;;;;6.52;49.37;103412.88;5111640;28;20011;-71
2024/01/08 08:42:43;;;;;;;0.50;0.50;;;;;;;6.51;49.89;103413.84;5111043;28;20041;-71
2024/01/08 08:45:09;;;;;;;0.43;0.43;;;;;;;7.00;48.73;103408.47;5111074;28;20036;-71
2024/01/08 08:47:34;;;;;;;0.40;0.40;;;;;;;6.50;50.11;103416.66;5111124;28;20028;-72
2024/01/08 08:49:59;;;;;;;0.40;0.40;;;;;;;6.30;49.99;103420.22;5110746;28;20031;-70
2024/01/08 08:52:25;;;;;;;0.50;0.50;;;;;;;6.23;50.03;103420.75;5110908;28;20483;-71
2024/01/08 08:54:50;;;;;;;0.50;0.50;;;;;;;6.65;48.82;103421.47;5110637;28;20047;-71
2024/01/08 08:57:17;;;;;;;0.50;0.50;;;;;;;7.08;47.83;103421.13;5110788;28;20113;-71
2024/01/08 08:59:42;;;;;;;0.30;0.30;;;;;;;7.20;47.76;103428.03;5110690;28;20040;-69
2024/01/08 09:02:08;;;;;;;0.40;0.40;;;;;;;7.01;47.88;103433.38;5110347;28;20030;-70
2024/01/08 09:04:34;;;;;;;0.40;0.40;;;;;;;6.50;49.56;103438.88;5091500;28;20027;-70
2024/01/08 09:06:59;;;;;;;0.43;0.43;;;;;;;6.03;50.20;103443.00;5110670;28;20015;-69
2024/01/08 09:09:24;;;;;;;0.40;0.40;;;;;;;6.73;48.60;103440.34;5110203;28;20036;-69
2024/01/08 09:11:50;;;;;;;0.40;0.40;;;;;;;6.11;50.41;103450.38;5091946;28;20031;-70
2024/01/08 09:14:15;;;;;;;0.50;0.50;;;;;;;6.00;49.97;103443.28;5110489;28;20035;-71
2024/01/08 09:16:40;;;;;;;0.40;0.40;;;;;;;6.54;49.27;103447.47;5108914;28;20122;-71
2024/01/08 09:19:06;;;;;;;0.40;0.40;;;;;;;6.28;49.97;103446.22;5110863;28;20080;-70
2024/01/08 09:21:32;;;;;;;0.30;0.30;;;;;;;5.99;50.94;103446.06;5110128;28;20404;-70
2024/01/08 09:23:57;;;;;;;0.40;0.40;;;;;;;6.73;49.46;103456.38;5110315;28;20106;-70
2024/01/08 09:26:22;;;;;;;0.40;0.40;;;;;;;6.88;49.07;103448.81;5109975;28;20696;-69
2024/01/08 09:28:49;;;;;;;0.40;0.40;;;;;;;6.38;50.01;103455.97;5110403;28;20749;-70
2024/01/08 09:31:14;;;;;;;0.50;0.50;;;;;;;6.48;49.54;103453.34;5109053;28;20035;-71
2024/01/08 09:33:39;;;;;;;0.40;0.40;;;;;;;6.28;50.23;103460.41;5110191;28;20479;-70
2024/01/08 09:36:05;;;;;;;0.30;0.30;;;;;;;6.47;50.01;103463.16;5091587;28;20164;-70
2024/01/08 09:38:30;;;;;;;0.40;0.40;;;;;;;6.09;51.30;103461.16;5090792;28;20039;-70
2024/01/08 09:40:56;;;;;;;0.30;0.30;;;;;;;6.41;51.01;103473.56;5091601;28;20036;-69
2024/01/08 09:43:22;;;;;;;0.40;0.40;;;;;;;6.51;50.29;103461.06;5091809;28;20042;-71
2024/01/08 09:46:07;;;;;;;0.40;0.40;;;;;;;6.14;49.88;103461.63;5110435;28;20340;-69
2024/01/08 09:48:35;;;;;;;0.40;0.40;;;;;;;6.18;50.91;103471.06;5107580;28;20042;-69
2024/01/08 09:51:02;;;;;;;0.40;0.40;;;;;;;6.47;49.86;103473.00;5106236;28;20039;-72
2024/01/08 09:53:29;;;;;;;0.50;0.50;;;;;;;6.47;49.75;103468.50;5109845;28;21490;-71
2024/01/08 09:55:54;;;;;;;0.47;0.47;;;;;;;6.17;50.28;103466.69;5107221;28;20046;-71
2024/01/08 09:58:20;;;;;;;0.30;0.30;;;;;;;6.50;49.73;103481.63;5110639;28;20399;-69
2024/01/08 10:00:45;;;;;;;0.30;0.30;;;;;;;7.30;47.76;103474.34;5109726;28;20036;-69
2024/01/08 10:03:11;;;;;;;0.60;0.60;;;;;;;6.72;48.59;103478.72;5109906;28;20039;-70
2024/01/08 10:05:38;;;;;;;0.40;0.40;;;;;;;6.54;49.22;103482.19;5098600;28;20067;-68
2024/01/08 10:08:04;;;;;;;0.40;0.40;;;;;;;6.38;49.25;103471.16;5093170;28;20047;-69
2024/01/08 10:10:29;;;;;;;0.40;0.40;;;;;;;6.73;48.40;103479.56;5094036;28;20028;-70
2024/01/08 10:12:55;;;;;;;0.33;0.33;;;;;;;6.68;47.81;103473.81;5094428;28;20479;-70
2024/01/08 10:15:22;;;;;;;0.40;0.40;;;;;;;6.36;48.67;103467.75;5093933;28;20089;-71
2024/01/08 10:17:48;;;;;;;0.40;0.40;;;;;;;6.56;47.95;103473.06;5094026;28;20127;-70
2024/01/08 10:20:15;;;;;;;0.33;0.33;;;;;;;6.86;47.29;103475.69;5093923;28;20036;-70
2024/01/08 10:22:42;;;;;;;0.30;0.30;;;;;;;7.28;45.73;103467.44;5093753;28;20036;-70
2024/01/08 10:25:08;;;;;;;0.50;0.50;;;;;;;6.50;47.35;103467.41;5094183;28;20052;-70
2024/01/08 10:27:33;;;;;;;0.40;0.40;;;;;;;7.06;46.91;103463.19;5093999;28;20039;-70
2024/01/08 10:29:59;;;;;;;0.40;0.40;;;;;;;6.77;47.11;103479.19;5092097;28;20105;-71
2024/01/08 10:32:24;;;;;;;0.40;0.40;;;;;;;6.47;47.68;103470.31;5094237;28;20127;-70
2024/01/08 10:34:51;;;;;;;0.40;0.40;;;;;;;6.63;47.32;103468.88;5093798;28;20553;-70
2024/01/08 10:37:18;;;;;;;0.30;0.30;;;;;;;5.96;49.20;103465.00;5089170;28;20059;-70
2024/01/08 10:39:47;;;;;;;0.50;0.50;;;;;;;5.88;49.46;103470.16;5082293;28;20043;-70
2024/01/08 10:42:12;;;;;;;0.40;0.40;;;;;;;6.70;47.97;103463.84;5093211;28;20044;-70
2024/01/08 10:44:38;;;;;;;0.40;0.40;;;;;;;7.16;47.15;103457.88;5093662;28;20537;-71
2024/01/08 10:47:08;;;;;;;0.33;0.33;;;;;;;7.83;45.72;103453.34;5108069;28;20122;-71
2024/01/08 10:49:38;;;;;;;0.30;0.30;;;;;;;7.29;46.25;103431.72;5114150;28;20027;-70
2024/01/08 10:52:10;;;;;;;0.40;0.40;;;;;;;8.27;44.27;103449.19;5114074;28;20015;-70
2024/01/08 10:54:54;;;;;;;0.50;0.50;;;;;;;8.65;43.25;103439.16;5113717;28;20031;-71
2024/01/08 10:57:21;;;;;;;0.35;0.35;;;;;;;7.07;45.28;103446.19;5113709;28;20039;-69
2024/01/08 10:59:50;;;;;;;0.43;0.43;;;;;;;7.96;44.02;103441.34;5113540;28;20031;-69
2024/01/08 11:02:16;;;;;;;0.35;0.35;;;;;;;8.34;43.25;103437.75;5113054;28;20111;-69
2024/01/08 11:04:43;;;;;;;0.32;0.32;;;;;;;7.79;42.98;103435.88;5113089;28;20030;-69
2024/01/08 11:07:11;;;;;;;0.47;0.47;;;;;;;7.09;45.37;103438.88;5110431;28;20053;-71
2024/01/08 11:09:37;;;;;;;0.40;0.40;;;;;;;7.11;44.67;103442.25;5097943;28;20044;-71
2024/01/08 11:12:03;;;;;;;0.40;0.40;;;;;;;6.48;46.16;103451.53;5112053;28;20074;-72
2024/01/08 11:14:29;;;;;;;0.30;0.30;;;;;;;7.34;45.54;103448.16;5094526;28;20024;-74
2024/01/08 11:16:55;;;;;;;0.50;0.50;;;;;;;7.18;44.94;103431.84;5096337;28;20028;-71
2024/01/08 11:19:20;;;;;;;0.40;0.40;;;;;;;5.98;47.81;103431.88;5092665;28;20016;-72
2024/01/08 11:21:55;;;;;;;0.40;0.40;;;;;;;7.01;45.96;103441.41;5092588;28;20032;-69
2024/01/08 11:24:20;;;;;;;0.50;0.50;;;;;;;7.12;45.57;103430.56;5091829;28;20040;-71
2024/01/08 11:26:51;;;;;;;0.30;0.30;;;;;;;7.04;46.27;103428.59;5097855;28;20516;-70
2024/01/08 11:29:17;;;;;;;0.30;0.30;;;;;;;7.50;44.49;103430.59;5112476;28;20044;-71